createdAt,value
2022-10-09T00:01:28.752Z,100589.00
2022-10-09T00:03:57.580Z,100582.00
2022-10-09T00:06:28.640Z,100588.00
2022-10-09T00:08:56.282Z,100575.00
2022-10-09T00:11:30.450Z,100591.00
2022-10-09T00:13:58.233Z,100597.00
2022-10-09T00:16:26.294Z,100592.00
2022-10-09T00:18:54.843Z,100597.00
2022-10-09T00:21:26.201Z,100583.00
2022-10-09T00:23:58.163Z,100588.00
2022-10-09T00:26:26.821Z,100595.00
2022-10-09T00:28:55.224Z,100590.00
2022-10-09T00:31:23.313Z,100597.00
2022-10-09T00:33:50.465Z,100592.00
2022-10-09T00:36:24.459Z,100600.00
2022-10-09T00:38:53.334Z,100594.00
2022-10-09T00:41:25.810Z,100599.00
2022-10-09T00:43:59.910Z,100595.00
2022-10-09T00:46:48.267Z,100602.00
2022-10-09T00:49:27.822Z,100607.00
2022-10-09T00:51:58.910Z,100599.00
2022-10-09T00:54:30.677Z,100607.00
2022-10-09T00:56:57.857Z,100614.00
2022-10-09T00:59:26.500Z,100617.00
2022-10-09T01:01:54.181Z,100616.00
2022-10-09T01:04:21.287Z,100627.00
2022-10-09T01:07:38.896Z,100621.00
2022-10-09T01:10:41.885Z,100621.00
2022-10-09T01:13:28.392Z,100619.00
2022-10-09T01:16:27.213Z,100618.00
2022-10-09T01:19:45.799Z,100623.00
2022-10-09T01:23:02.866Z,100626.00
2022-10-09T01:25:44.827Z,100612.00
2022-10-09T01:28:14.521Z,100626.00
2022-10-09T01:30:42.642Z,100615.00
2022-10-09T01:33:11.260Z,100621.00
2022-10-09T01:35:40.869Z,100625.00
2022-10-09T01:38:08.550Z,100629.00
2022-10-09T01:40:37.040Z,100625.00
2022-10-09T01:43:05.360Z,100629.00
2022-10-09T01:45:42.256Z,100629.00
2022-10-09T01:48:18.036Z,100638.00
2022-10-09T01:50:52.751Z,100638.00
2022-10-09T01:53:21.621Z,100635.00
2022-10-09T01:56:15.098Z,100633.00
2022-10-09T01:58:52.234Z,100642.00
2022-10-09T02:01:27.189Z,100650.00
2022-10-09T02:03:58.791Z,100644.00
2022-10-09T02:06:28.803Z,100647.00
2022-10-09T02:08:56.353Z,100652.00
2022-10-09T02:11:29.418Z,100655.00
2022-10-09T02:13:56.703Z,100644.00
2022-10-09T02:16:37.539Z,100664.00
2022-10-09T02:19:19.845Z,100661.00
2022-10-09T02:22:01.361Z,100673.00
2022-10-09T02:24:29.604Z,100670.00
2022-10-09T02:26:58.219Z,100678.00
2022-10-09T02:29:26.108Z,100675.00
2022-10-09T02:31:53.199Z,100684.00
2022-10-09T02:34:21.234Z,100688.00
2022-10-09T02:36:49.909Z,100694.00
2022-10-09T02:39:17.728Z,100697.00
2022-10-09T02:41:44.670Z,100692.00
2022-10-09T02:44:14.688Z,100697.00
2022-10-09T02:46:41.819Z,100698.00
2022-10-09T02:49:08.834Z,100702.00
2022-10-09T02:51:35.917Z,100709.00
2022-10-09T02:54:03.170Z,100712.00
2022-10-09T02:56:30.520Z,100715.00
2022-10-09T02:58:57.762Z,100718.00
2022-10-09T03:01:25.053Z,100714.00
2022-10-09T03:03:52.205Z,100730.00
2022-10-09T03:06:24.115Z,100726.00
2022-10-09T03:08:53.593Z,100723.00
2022-10-09T03:11:23.332Z,100724.00
2022-10-09T03:13:50.978Z,100736.00
2022-10-09T03:16:24.437Z,100737.00
2022-10-09T03:18:52.871Z,100734.00
2022-10-09T03:21:26.787Z,100742.00
2022-10-09T03:23:54.770Z,100716.00
2022-10-09T03:26:25.819Z,100749.00
2022-10-09T03:28:54.837Z,100764.00
2022-10-09T03:34:12.972Z,100757.00
2022-10-09T03:36:40.308Z,100761.00
2022-10-09T03:39:07.308Z,100763.00
2022-10-09T03:41:34.207Z,100761.00
2022-10-09T03:44:01.179Z,100765.00
2022-10-09T03:46:28.204Z,100764.00
2022-10-09T03:48:55.361Z,100752.00
2022-10-09T03:51:22.270Z,100780.00
2022-10-09T03:53:50.018Z,100777.00
2022-10-09T03:56:16.972Z,100780.00
2022-10-09T03:58:43.885Z,100766.00
2022-10-09T04:01:10.858Z,100783.00
2022-10-09T04:03:37.881Z,100784.00
2022-10-09T04:06:05.164Z,100779.00
2022-10-09T04:08:32.083Z,100788.00
2022-10-09T04:11:00.548Z,100791.00
2022-10-09T04:13:27.821Z,100786.00
2022-10-09T04:15:56.140Z,100794.00
2022-10-09T04:18:24.571Z,100788.00
2022-10-09T04:20:56.468Z,100763.00
2022-10-09T04:23:27.036Z,100797.00
2022-10-09T04:25:56.707Z,100803.00
2022-10-09T04:28:24.212Z,100798.00
2022-10-09T04:30:51.523Z,100801.00
2022-10-09T04:33:19.216Z,100809.00
2022-10-09T04:35:50.712Z,100804.00
2022-10-09T04:38:17.744Z,100801.00
2022-10-09T04:40:44.748Z,100809.00
2022-10-09T04:43:11.612Z,100723.00
2022-10-09T04:45:41.829Z,100817.00
2022-10-09T04:48:08.755Z,100823.00
2022-10-09T04:50:39.632Z,100825.00
2022-10-09T04:53:06.552Z,100826.00
2022-10-09T04:55:33.485Z,100826.00
2022-10-09T04:58:00.351Z,100828.00
2022-10-09T05:00:27.243Z,100828.00
2022-10-09T05:02:54.141Z,100844.00
2022-10-09T05:05:21.034Z,100835.00
2022-10-09T05:07:47.920Z,100853.00
2022-10-09T05:10:15.026Z,100848.00
2022-10-09T05:12:42.047Z,100847.00
2022-10-09T05:15:09.553Z,100858.00
2022-10-09T05:17:36.560Z,100864.00
2022-10-09T05:20:03.782Z,100860.00
2022-10-09T05:22:30.702Z,100864.00
2022-10-09T05:24:57.582Z,100872.00
2022-10-09T05:27:24.585Z,100863.00
2022-10-09T05:29:51.462Z,100877.00
2022-10-09T05:32:18.382Z,100878.00
2022-10-09T05:34:45.296Z,100881.00
2022-10-09T05:37:12.257Z,100873.00
2022-10-09T05:39:39.547Z,100885.00
2022-10-09T05:42:06.500Z,100902.00
2022-10-09T05:44:33.394Z,100897.00
2022-10-09T05:47:00.306Z,100899.00
2022-10-09T05:49:27.198Z,100899.00
2022-10-09T05:51:55.876Z,100908.00
2022-10-09T05:54:22.910Z,100883.00
2022-10-09T05:56:49.855Z,100913.00
2022-10-09T05:59:21.895Z,100913.00
2022-10-09T06:01:51.616Z,100907.00
2022-10-09T06:04:24.608Z,100930.00
2022-10-09T06:06:52.058Z,100928.00
2022-10-09T06:09:25.471Z,100939.00
2022-10-09T06:11:54.711Z,100943.00
2022-10-09T06:14:22.614Z,100943.00
2022-10-09T06:16:50.295Z,100959.00
2022-10-09T06:19:19.307Z,100964.00
2022-10-09T06:21:47.618Z,100961.00
2022-10-09T06:24:27.372Z,100964.00
2022-10-09T06:26:56.966Z,100973.00
2022-10-09T06:29:23.982Z,100974.00
2022-10-09T06:31:50.885Z,100975.00
2022-10-09T06:34:19.034Z,100983.00
2022-10-09T06:36:45.911Z,100982.00
2022-10-09T06:39:13.150Z,100993.00
2022-10-09T06:41:40.339Z,100994.00
2022-10-09T06:44:16.404Z,100993.00
2022-10-09T06:46:48.445Z,100999.00
2022-10-09T06:49:15.387Z,101005.00
2022-10-09T06:51:42.350Z,101001.00
2022-10-09T06:54:17.250Z,101013.00
2022-10-09T06:56:44.659Z,100991.00
2022-10-09T06:59:12.507Z,101014.00
2022-10-09T07:01:39.645Z,101022.00
2022-10-09T07:04:17.664Z,101023.00
2022-10-09T07:06:47.810Z,101033.00
2022-10-09T07:09:16.395Z,101041.00
2022-10-09T07:11:49.002Z,101037.00
2022-10-09T07:14:16.991Z,101044.00
2022-10-09T07:16:47.122Z,101051.00
2022-10-09T07:19:17.486Z,101054.00
2022-10-09T07:21:48.327Z,101034.00
2022-10-09T07:24:16.308Z,101062.00
2022-10-09T07:26:46.216Z,101069.00
2022-10-09T07:29:16.480Z,101070.00
2022-10-09T07:31:44.119Z,101075.00
2022-10-09T07:34:11.387Z,101082.00
2022-10-09T07:36:38.352Z,101079.00
2022-10-09T07:39:05.843Z,101080.00
2022-10-09T07:41:33.336Z,101076.00
2022-10-09T07:44:00.402Z,101089.00
2022-10-09T07:46:33.268Z,101082.00
2022-10-09T07:49:01.863Z,101100.00
2022-10-09T07:51:30.452Z,101096.00
2022-10-09T07:53:59.948Z,101110.00
2022-10-09T07:56:34.248Z,101093.00
2022-10-09T07:59:07.974Z,101103.00
2022-10-09T08:01:36.173Z,101101.00
2022-10-09T08:04:04.129Z,101115.00
2022-10-09T08:06:31.918Z,101122.00
2022-10-09T08:09:02.264Z,101127.00
2022-10-09T08:11:30.239Z,101127.00
2022-10-09T08:13:57.721Z,101129.00
2022-10-09T08:16:26.620Z,101127.00
2022-10-09T08:18:59.514Z,101132.00
2022-10-09T08:21:28.461Z,101139.00
2022-10-09T08:23:58.653Z,101140.00
2022-10-09T08:26:29.052Z,101139.00
2022-10-09T08:29:02.596Z,101151.00
2022-10-09T08:31:31.886Z,101154.00
2022-10-09T08:34:01.782Z,101155.00
2022-10-09T08:36:29.918Z,101154.00
2022-10-09T08:38:57.110Z,101160.00
2022-10-09T08:41:33.220Z,101159.00
2022-10-09T08:44:25.207Z,101157.00
2022-10-09T08:47:20.350Z,101164.00
2022-10-09T08:50:11.126Z,101171.00
2022-10-09T08:52:56.357Z,101175.00
2022-10-09T08:55:32.818Z,101180.00
2022-10-09T08:58:06.924Z,101184.00
2022-10-09T09:00:49.958Z,101189.00
2022-10-09T09:03:43.457Z,101195.00
2022-10-09T09:06:38.078Z,101197.00
2022-10-09T09:09:38.582Z,101189.00
2022-10-09T09:12:21.989Z,101203.00
2022-10-09T09:15:23.234Z,101210.00
2022-10-09T09:18:37.629Z,101198.00
2022-10-09T09:21:35.254Z,101195.00
2022-10-09T09:24:13.776Z,101195.00
2022-10-09T09:26:43.898Z,101194.00
2022-10-09T09:29:15.224Z,101198.00
2022-10-09T09:31:46.242Z,101198.00
2022-10-09T09:34:23.544Z,101189.00
2022-10-09T09:36:56.992Z,101200.00
2022-10-09T09:40:24.234Z,101201.00
2022-10-09T09:42:21.263Z,101212.00
2022-10-09T09:45:22.259Z,101208.00
2022-10-09T09:47:57.505Z,101217.00
2022-10-09T09:50:48.566Z,101229.00
2022-10-09T09:53:32.526Z,101223.00
2022-10-09T09:56:00.051Z,101216.00
2022-10-09T09:58:55.208Z,101223.00
2022-10-09T10:01:25.905Z,101215.00
2022-10-09T10:03:56.754Z,101222.00
2022-10-09T10:06:31.792Z,101222.00
2022-10-09T10:09:12.910Z,101213.00
2022-10-09T10:12:01.611Z,101228.00
2022-10-09T10:14:29.589Z,101231.00
2022-10-09T10:17:00.030Z,101226.00
2022-10-09T10:19:36.238Z,101236.00
2022-10-09T10:22:23.633Z,101234.00
2022-10-09T10:24:56.788Z,101234.00
2022-10-09T10:27:37.221Z,101237.00
2022-10-09T10:30:10.872Z,101247.00
2022-10-09T10:33:16.839Z,101230.00
2022-10-09T10:35:44.920Z,101227.00
2022-10-09T10:38:19.532Z,101244.00
2022-10-09T10:40:52.743Z,101251.00
2022-10-09T10:43:45.248Z,101252.00
2022-10-09T10:46:36.933Z,101253.00
2022-10-09T10:49:04.661Z,101252.00
2022-10-09T10:52:08.823Z,101253.00
2022-10-09T10:55:22.184Z,101262.00
2022-10-09T10:58:32.416Z,101261.00
2022-10-09T11:01:32.083Z,101259.00
2022-10-09T11:04:22.785Z,101260.00
2022-10-09T11:07:07.752Z,101251.00
2022-10-09T11:10:19.110Z,101246.00
2022-10-09T11:13:06.478Z,101260.00
2022-10-09T11:15:57.467Z,101254.00
2022-10-09T11:18:33.303Z,101251.00
2022-10-09T11:21:13.148Z,101246.00
2022-10-09T11:24:13.800Z,101243.00
2022-10-09T11:26:52.842Z,101247.00
2022-10-09T11:29:50.218Z,101250.00
2022-10-09T11:32:27.285Z,101250.00
2022-10-09T11:35:12.492Z,101260.00
2022-10-09T11:37:43.822Z,101259.00
2022-10-09T11:40:31.116Z,101250.00
2022-10-09T11:43:25.202Z,101243.00
2022-10-09T11:46:11.418Z,101243.00
2022-10-09T11:48:54.768Z,101242.00
2022-10-09T11:51:24.635Z,101241.00
2022-10-09T11:53:53.595Z,101250.00
2022-10-09T11:56:32.528Z,101243.00
2022-10-09T11:59:30.183Z,101250.00
2022-10-09T12:02:23.784Z,101258.00
2022-10-09T12:04:54.749Z,101248.00
2022-10-09T12:10:34.684Z,101246.00
2022-10-09T12:13:06.504Z,101245.00
2022-10-09T12:15:59.754Z,101233.00
2022-10-09T12:18:46.862Z,101236.00
2022-10-09T12:21:31.881Z,101242.00
2022-10-09T12:24:00.120Z,101242.00
2022-10-09T12:26:30.786Z,101241.00
2022-10-09T12:29:04.809Z,101254.00
2022-10-09T12:31:39.910Z,101227.00
2022-10-09T12:34:24.088Z,101240.00
2022-10-09T12:36:51.114Z,101249.00
2022-10-09T12:39:24.348Z,101244.00
2022-10-09T12:41:56.970Z,101224.00
2022-10-09T12:44:35.775Z,101238.00
2022-10-09T12:47:19.064Z,101233.00
2022-10-09T12:49:59.524Z,101259.00
2022-10-09T12:52:26.835Z,101240.00
2022-10-09T12:54:54.082Z,101235.00
2022-10-09T12:57:25.395Z,101233.00
2022-10-09T12:59:55.580Z,101239.00
2022-10-09T13:02:22.920Z,101232.00
2022-10-09T13:05:00.564Z,101224.00
2022-10-09T13:07:30.270Z,101239.00
2022-10-09T13:10:20.284Z,101240.00
2022-10-09T13:12:55.630Z,101246.00
2022-10-09T13:15:37.136Z,101245.00
2022-10-09T13:18:24.383Z,101240.00
2022-10-09T13:21:22.330Z,101254.00
2022-10-09T13:23:49.407Z,101247.00
2022-10-09T13:26:26.868Z,101246.00
2022-10-09T13:28:56.737Z,101258.00
2022-10-09T13:31:24.050Z,101262.00
2022-10-09T13:33:51.039Z,101259.00
2022-10-09T13:36:19.932Z,101251.00
2022-10-09T13:38:47.924Z,101256.00
2022-10-09T13:41:20.849Z,101251.00
2022-10-09T13:43:49.407Z,101252.00
2022-10-09T13:46:16.577Z,101242.00
2022-10-09T13:48:43.591Z,101251.00
2022-10-09T13:51:11.394Z,101241.00
2022-10-09T13:53:38.527Z,101256.00
2022-10-09T13:56:07.768Z,101262.00
2022-10-09T13:58:35.104Z,101265.00
2022-10-09T14:01:02.415Z,101262.00
2022-10-09T14:03:29.523Z,101263.00
2022-10-09T14:06:03.013Z,101270.00
2022-10-09T14:08:30.696Z,101271.00
2022-10-09T14:11:00.661Z,101249.00
2022-10-09T14:13:28.791Z,101264.00
2022-10-09T14:15:56.728Z,101271.00
2022-10-09T14:18:23.842Z,101278.00
2022-10-09T14:20:50.894Z,101270.00
2022-10-09T14:23:17.806Z,101275.00
2022-10-09T14:25:44.711Z,101272.00
2022-10-09T14:28:11.642Z,101273.00
2022-10-09T14:30:43.689Z,101275.00
2022-10-09T14:33:12.413Z,101266.00
2022-10-09T14:35:39.662Z,101276.00
2022-10-09T14:38:06.588Z,101270.00
2022-10-09T14:40:33.494Z,101272.00
2022-10-09T14:43:00.821Z,101271.00
2022-10-09T14:45:28.981Z,101268.00
2022-10-09T14:47:56.791Z,101264.00
2022-10-09T14:50:23.704Z,101264.00
2022-10-09T14:52:50.921Z,101269.00
2022-10-09T14:55:18.093Z,101269.00
2022-10-09T14:57:45.322Z,101267.00
2022-10-09T15:00:13.168Z,101271.00
2022-10-09T15:02:40.254Z,101267.00
2022-10-09T15:05:08.518Z,101262.00
2022-10-09T15:07:35.586Z,101267.00
2022-10-09T15:10:02.548Z,101270.00
2022-10-09T15:12:29.455Z,101258.00
2022-10-09T15:14:56.498Z,101263.00
2022-10-09T15:17:23.365Z,101267.00
2022-10-09T15:19:50.378Z,101260.00
2022-10-09T15:22:17.407Z,101274.00
2022-10-09T15:24:44.326Z,101274.00
2022-10-09T15:27:11.283Z,101275.00
2022-10-09T15:29:38.312Z,101275.00
2022-10-09T15:32:05.242Z,101271.00
2022-10-09T15:34:32.148Z,101270.00
2022-10-09T15:36:59.036Z,101288.00
2022-10-09T15:39:25.952Z,101298.00
2022-10-09T15:41:52.886Z,101293.00
2022-10-09T15:44:20.999Z,101290.00
2022-10-09T15:46:49.452Z,101290.00
2022-10-09T15:49:16.752Z,101291.00
2022-10-09T15:51:44.198Z,101298.00
2022-10-09T15:54:12.937Z,101296.00
2022-10-09T15:56:41.368Z,101300.00
2022-10-09T15:59:13.173Z,101293.00
2022-10-09T16:01:40.432Z,101303.00
2022-10-09T16:04:07.443Z,101299.00
2022-10-09T16:06:34.408Z,101302.00
2022-10-09T16:09:03.977Z,101304.00
2022-10-09T16:11:31.482Z,101305.00
2022-10-09T16:13:59.319Z,101309.00
2022-10-09T16:16:27.809Z,101305.00
2022-10-09T16:18:56.770Z,101313.00
2022-10-09T16:21:28.057Z,101320.00
2022-10-09T16:23:58.722Z,101325.00
2022-10-09T16:26:29.384Z,101323.00
2022-10-09T16:28:57.142Z,101329.00
2022-10-09T16:31:30.398Z,101329.00
2022-10-09T16:33:59.274Z,101318.00
2022-10-09T16:36:27.054Z,101351.00
2022-10-09T16:38:55.860Z,101324.00
2022-10-09T16:41:24.283Z,101323.00
2022-10-09T16:43:55.029Z,101321.00
2022-10-09T16:46:25.288Z,101325.00
2022-10-09T16:48:55.148Z,101305.00
2022-10-09T16:51:29.414Z,101317.00
2022-10-09T16:54:01.287Z,101293.00
2022-10-09T16:56:37.120Z,101329.00
2022-10-09T16:59:08.036Z,101321.00
2022-10-09T17:01:37.875Z,101320.00
2022-10-09T17:04:05.418Z,101317.00
2022-10-09T17:06:32.396Z,101325.00
2022-10-09T17:09:00.182Z,101321.00
2022-10-09T17:11:32.355Z,101311.00
2022-10-09T17:14:00.033Z,101318.00
2022-10-09T17:16:31.392Z,101322.00
2022-10-09T17:18:58.677Z,101320.00
2022-10-09T17:21:29.318Z,101322.00
2022-10-09T17:24:05.744Z,101322.00
2022-10-09T17:26:33.037Z,101310.00
2022-10-09T17:29:01.858Z,101323.00
2022-10-09T17:31:30.190Z,101335.00
2022-10-09T17:34:00.826Z,101317.00
2022-10-09T17:36:33.317Z,101346.00
2022-10-09T17:39:00.410Z,101328.00
2022-10-09T17:41:28.314Z,101330.00
2022-10-09T17:43:57.248Z,101331.00
2022-10-09T17:46:26.752Z,101338.00
2022-10-09T17:48:56.651Z,101309.00
2022-10-09T17:51:29.548Z,101332.00
2022-10-09T17:54:09.609Z,101334.00
2022-10-09T17:56:39.378Z,101332.00
2022-10-09T17:59:07.286Z,101329.00
2022-10-09T18:01:34.859Z,101328.00
2022-10-09T18:04:01.998Z,101329.00
2022-10-09T18:06:33.226Z,101328.00
2022-10-09T18:09:00.806Z,101325.00
2022-10-09T18:11:28.524Z,101332.00
2022-10-09T18:13:55.824Z,101331.00
2022-10-09T18:16:35.258Z,101337.00
2022-10-09T18:19:13.856Z,101335.00
2022-10-09T18:21:45.261Z,101339.00
2022-10-09T18:24:12.935Z,101316.00
2022-10-09T18:26:40.584Z,101338.00
2022-10-09T18:29:07.965Z,101332.00
2022-10-09T18:31:35.590Z,101334.00
2022-10-09T18:34:02.594Z,101331.00
2022-10-09T18:36:31.778Z,101340.00
2022-10-09T18:39:07.612Z,101338.00
2022-10-09T18:41:35.694Z,101333.00
2022-10-09T18:44:03.803Z,101333.00
2022-10-09T18:46:42.715Z,101337.00
2022-10-09T18:49:14.620Z,101346.00
2022-10-09T18:51:44.558Z,101343.00
2022-10-09T18:54:17.080Z,101338.00
2022-10-09T18:56:45.396Z,101338.00
2022-10-09T18:59:17.654Z,101343.00
2022-10-09T19:01:44.758Z,101345.00
2022-10-09T19:04:11.966Z,101338.00
2022-10-09T19:06:43.065Z,101332.00
2022-10-09T19:09:10.089Z,101341.00
2022-10-09T19:11:37.047Z,101342.00
2022-10-09T19:14:04.337Z,101345.00
2022-10-09T19:16:33.979Z,101340.00
2022-10-09T19:19:01.281Z,101337.00
2022-10-09T19:21:28.513Z,101326.00
2022-10-09T19:23:55.718Z,101333.00
2022-10-09T19:26:23.310Z,101329.00
2022-10-09T19:28:50.445Z,101343.00
2022-10-09T19:31:17.560Z,101336.00
2022-10-09T19:33:44.523Z,101328.00
2022-10-09T19:36:14.362Z,101307.00
2022-10-09T19:38:42.085Z,101337.00
2022-10-09T19:41:15.570Z,101340.00
2022-10-09T19:43:42.856Z,101344.00
2022-10-09T19:46:17.519Z,101337.00
2022-10-09T19:48:46.001Z,101339.00
2022-10-09T19:51:22.311Z,101342.00
2022-10-09T19:53:50.961Z,101310.00
2022-10-09T19:56:26.170Z,101340.00
2022-10-09T19:58:55.625Z,101332.00
2022-10-09T20:01:26.508Z,101333.00
2022-10-09T20:04:02.492Z,101326.00
2022-10-09T20:06:31.028Z,101337.00
2022-10-09T20:08:57.984Z,101335.00
2022-10-09T20:11:26.752Z,101325.00
2022-10-09T20:13:56.190Z,101326.00
2022-10-09T20:16:25.152Z,101323.00
2022-10-09T20:18:55.595Z,101326.00
2022-10-09T20:21:22.668Z,101329.00
2022-10-09T20:23:49.960Z,101323.00
2022-10-09T20:26:20.812Z,101324.00
2022-10-09T20:28:48.851Z,101325.00
2022-10-09T20:31:19.840Z,101317.00
2022-10-09T20:33:49.779Z,101323.00
2022-10-09T20:36:37.448Z,101320.00
2022-10-09T20:39:11.917Z,101317.00
2022-10-09T20:41:40.787Z,101321.00
2022-10-09T20:44:07.737Z,101319.00
2022-10-09T20:46:38.000Z,101316.00
2022-10-09T20:49:08.225Z,101320.00
2022-10-09T20:51:37.020Z,101315.00
2022-10-09T20:54:05.305Z,101315.00
2022-10-09T20:56:34.100Z,101322.00
2022-10-09T20:59:01.745Z,101314.00
2022-10-09T21:01:29.083Z,101310.00
2022-10-09T21:03:59.026Z,101305.00
2022-10-09T21:06:26.531Z,101314.00
2022-10-09T21:08:53.630Z,101308.00
2022-10-09T21:11:24.101Z,101309.00
2022-10-09T21:13:51.573Z,101296.00
2022-10-09T21:16:22.512Z,101312.00
2022-10-09T21:19:02.508Z,101306.00
2022-10-09T21:21:31.152Z,101311.00
2022-10-09T21:24:00.624Z,101311.00
2022-10-09T21:26:30.371Z,101307.00
2022-10-09T21:28:59.888Z,101312.00
2022-10-09T21:31:30.832Z,101307.00
2022-10-09T21:34:00.004Z,101314.00
2022-10-09T21:36:55.823Z,101312.00
2022-10-09T21:39:28.270Z,101307.00
2022-10-09T21:41:55.495Z,101306.00
2022-10-09T21:44:22.465Z,101305.00
2022-10-09T21:46:49.398Z,101306.00
2022-10-09T21:49:21.960Z,101313.00
2022-10-09T21:51:49.650Z,101306.00
2022-10-09T21:54:16.814Z,101304.00
2022-10-09T21:56:43.852Z,101302.00
2022-10-09T21:59:10.977Z,101298.00
2022-10-09T22:01:38.192Z,101306.00
2022-10-09T22:04:05.371Z,101300.00
2022-10-09T22:06:32.302Z,101311.00
2022-10-09T22:08:59.935Z,101302.00
2022-10-09T22:11:27.134Z,101310.00
2022-10-09T22:13:56.107Z,101312.00
2022-10-09T22:16:23.526Z,101303.00
2022-10-09T22:18:50.502Z,101306.00
2022-10-09T22:21:18.310Z,101308.00
2022-10-09T22:23:45.760Z,101297.00
2022-10-09T22:26:17.845Z,101300.00
2022-10-09T22:28:47.353Z,101304.00
2022-10-09T22:31:21.779Z,101304.00
2022-10-09T22:34:06.777Z,101289.00
2022-10-09T22:36:34.264Z,101295.00
2022-10-09T22:39:06.940Z,101314.00
2022-10-09T22:41:35.969Z,101307.00
2022-10-09T22:44:06.129Z,101310.00
2022-10-09T22:46:37.644Z,101311.00
2022-10-09T22:49:07.052Z,101313.00
2022-10-09T22:51:34.961Z,101313.00
2022-10-09T22:54:01.937Z,101309.00
2022-10-09T22:56:36.579Z,101314.00
2022-10-09T22:59:05.422Z,101310.00
2022-10-09T23:01:42.553Z,101313.00
2022-10-09T23:04:13.460Z,101316.00
2022-10-09T23:06:42.306Z,101316.00
2022-10-09T23:09:14.078Z,101320.00
2022-10-09T23:11:42.229Z,101321.00
2022-10-09T23:14:11.595Z,101314.00
2022-10-09T23:16:39.428Z,101315.00
2022-10-09T23:19:07.283Z,101310.00
2022-10-09T23:21:36.535Z,101322.00
2022-10-09T23:24:04.718Z,101316.00
2022-10-09T23:26:33.849Z,101324.00
2022-10-09T23:29:18.207Z,101326.00
2022-10-09T23:31:46.410Z,101318.00
2022-10-09T23:34:13.728Z,101321.00
2022-10-09T23:36:41.307Z,101327.00
2022-10-09T23:39:08.308Z,101324.00
2022-10-09T23:41:35.736Z,101320.00
2022-10-09T23:44:02.824Z,101313.00
2022-10-09T23:46:35.555Z,101307.00
2022-10-09T23:49:02.593Z,101306.00
2022-10-09T23:51:30.094Z,101322.00
2022-10-09T23:53:58.657Z,101306.00
2022-10-09T23:56:29.822Z,101308.00
2022-10-09T23:58:58.825Z,101307.00
